Dorothy's Dash

Age Group Results

November 12, 2016


Results by RunTIME Racing Services www.run-time.com


Men: Top Finishers 0- 0 1- 9 10-14 15-19 20-29 30-39 40-49 50-59 60-69 70-99
Women: Top Finishers 0- 0 1- 9 10-14 15-19 20-29 30-39 40-49 50-59 60-69 70-99

5K Timed

Top

Female OVERALL Winners

Place Name City Bib No Age Overall Time Back Chip Time Gun Time Chip Diff Pace
1 SAMANTHA HUMPHRIES 949 11 11   18:08.9 18:09.4 0:00.5 5:50/M
Top

Male OVERALL Winners

Place Name City Bib No Age Overall Time Back Chip Time Gun Time Chip Diff Pace
1 KEITH PIERCE 322 36 1   14:58.1 15:00.8 0:02.7 4:49/M
Top

Age or ID UNPROVIDED

Place Name City Bib No Age Overall Time Back Chip Time Gun Time Chip Diff Pace
1 FABIOLA MARTELL 945 332   38:12.1 38:40.3 0:28.1 12:17/M
2 TANIA COLON 944 336 0:03.5 38:15.7 38:44.0 0:28.3 12:18/M
3 PATTY SCHULZ 943 361 4:49.1 43:01.3 43:01.3 13:50/M
Top

Age or ID UNPROVIDED

Place Name City Bib No Age Overall Time Back Chip Time Gun Time Chip Diff Pace
1 Unknown Partic. 958 958 44   20:23.4 20:27.1 0:03.6 6:33/M
2 Unknown Partic. 957 957 104 3:10.5 23:33.9 23:37.4 0:03.5 7:34/M
3 Unknown Partic. 959 959 130 4:33.6 24:57.1 25:00.6 0:03.5 8:01/M
4 Unknown Partic. 960 960 155 6:13.0 26:36.4 26:40.5 0:04.0 8:33/M
5 Unknown Partic. 961 961 189 7:36.2 27:59.6 28:03.2 0:03.5 9:00/M
6 Unknown Partic. 967 967 241 11:03.1 31:26.5 31:43.4 0:16.8 10:06/M
7 Unknown Partic. 332 332 286 14:14.1 34:37.6 35:36.6 0:59.0 11:08/M
8 Unknown Partic. 956 956 301 15:00.8 35:24.3 35:26.1 0:01.7 11:23/M
9 Unknown Partic. 762 762 314 15:50.7 36:14.2 36:29.2 0:15.0 11:39/M
Top

Female 9 & Under

Place Name City Bib No Age Overall Time Back Chip Time Gun Time Chip Diff Pace
1 AVERY ANDERSON 946 9 101   23:13.1 23:17.4 0:04.2 7:28/M
2 ELENI JO BROWNE 903 8 124 1:23.0 24:36.1 24:40.4 0:04.2 7:55/M
3 MEGAN TRACEWELL 1000 9 170 3:55.7 27:08.8 27:17.8 0:08.9 8:43/M
4 CLAIRE CASE 1642 8 207 5:48.7 29:01.8 29:17.7 0:15.9 9:20/M
5 WILLIAM TEPERA 2745 8 238 7:45.2 30:58.3 31:02.9 0:04.5 9:57/M
6 JILL WATSON 962 5 261 10:08.2 33:21.4 34:03.3 0:41.9 10:43/M
7 EMILY RADANDT 1899 8 271 10:47.8 34:00.9 34:45.5 0:44.5 10:56/M
8 MCKENZY DODSON 1825 6 310 12:52.7 36:05.8 37:01.3 0:55.5 11:36/M
Top

Male 9 & Under

Place Name City Bib No Age Overall Time Back Chip Time Gun Time Chip Diff Pace
1 JADEN ELGIN 1612 9 27   19:23.2 19:24.2 0:01.0 6:14/M
2 AUSTIN LYDA FLOWER MOUND TX 319 9 36 0:32.8 19:56.0 19:56.9 0:00.9 6:25/M
3 PARKER NOFFZ 321 9 58 2:00.7 21:23.9 21:25.4 0:01.4 6:53/M
4 AUSTIN LYDA 2740 9 95 3:39.0 23:02.2 23:06.2 0:04.0 7:24/M
5 MAX LYBBERT 1645 9 145 6:36.1 25:59.3 26:02.4 0:03.1 8:21/M
6 SIMON VELGEL 979 8 159 7:17.7 26:40.9 26:42.4 0:01.5 8:34/M
7 NITIN SATISH 955 7 187 8:28.3 27:51.5 27:56.9 0:05.3 8:57/M
8 DAVID ILVES 1618 9 191 8:41.2 28:04.4 28:07.8 0:03.3 9:01/M
9 PARKER MARSHALL 1536 8 250 12:47.0 32:10.2 32:37.3 0:27.0 10:21/M
10 LINCOLN COOPER 1532 7 294 15:44.1 35:07.3 35:38.3 0:31.0 11:17/M
11 CLAYTON SHIPP 327 7 299 15:56.7 35:19.9 35:24.4 0:04.5 11:21/M
12 LEVI POWELL 1896 5 390 29:00.8 48:24.0 49:11.3 0:47.3 15:34/M
13 DONOVAN BRUTON 976 7 448 43:07.8 1:02:31.0 1:02:46.0 0:15.0 20:06/M
14 LIAM ROBINSON 1512 8 450 43:23.7 1:02:46.9 1:02:46.9 20:11/M
Top

Female 10 to 14

Place Name City Bib No Age Overall Time Back Chip Time Gun Time Chip Diff Pace
1 ALYSSA HARRIS 1615 13 14   18:25.4 18:26.1 0:00.7 5:55/M
2 NICOLE HUMPHRIES 950 11 17 0:02.6 18:28.1 18:29.0 0:00.8 5:56/M
3 RACHEL SUTLIFF 910 13 18 0:09.6 18:35.0 18:36.3 0:01.2 5:59/M
4 NATALIE COOK VICTORIA TX 948 12 22 0:25.0 18:50.5 18:51.2 0:00.7 6:03/M
5 ALLIE LYDA 2737 13 26 0:47.1 19:12.6 19:13.5 0:00.9 6:10/M
6 AUBREY LYDA 2738 12 34 1:22.7 19:48.2 19:50.0 0:01.8 6:22/M
7 MARY HARRIS 1616 12 38 1:41.4 20:06.9 20:08.7 0:01.8 6:28/M
8 MIA HOANG 1617 14 41 1:48.0 20:13.5 20:14.7 0:01.2 6:30/M
9 JASMEET BRAICH 1604 10 54 2:40.0 21:05.5 21:07.0 0:01.5 6:47/M
10 ALLISON WILSON 1630 13 56 2:48.2 21:13.7 21:15.2 0:01.5 6:49/M
11 ANNELIESE PECURVIA 1627 12 57 2:53.1 21:18.6 21:20.6 0:02.0 6:51/M
12 EMILY LILES 1620 14 71 3:25.4 21:50.9 21:52.3 0:01.3 7:01/M
13 JASPREET BRAICH 1605 11 78 3:51.7 22:17.2 22:18.7 0:01.5 7:10/M
14 NANCI ANDERSON 1600 13 83 4:03.2 22:28.7 22:31.0 0:02.2 7:13/M
15 JULIA RUCKDESCHEL 314 10 84 4:05.7 22:31.1 22:33.7 0:02.5 7:14/M
16 MACKENZIE O'ROURKE 1634 11 91 4:20.2 22:45.6 22:49.0 0:03.3 7:19/M
17 KIRA WYGLE 2733 13 102 4:56.2 23:21.7 23:24.8 0:03.1 7:30/M
18 HAYLEY EPPS 1830 13 113 5:41.6 24:07.1 24:23.5 0:16.4 7:45/M
19 TAYLOR WILSEY 991 11 119 5:59.2 24:24.7 24:30.4 0:05.7 7:51/M
20 EMILY DREGER 1651 12 120 6:03.5 24:29.0 24:32.2 0:03.1 7:52/M
21 MADISON VLOITOS 941 10 138 7:10.8 25:36.3 25:46.3 0:10.0 8:14/M
22 MEGAN VLOITOS 942 10 140 7:13.1 25:38.6 25:49.1 0:10.5 8:15/M
23 RENNER VEAZEY 1766 11 141 7:15.1 25:40.5 25:44.8 0:04.2 8:15/M
24 AUDREY CARROL 1641 11 169 8:43.0 27:08.5 27:16.9 0:08.4 8:43/M
25 HANNAH VLOITOS 940 12 190 9:35.0 28:00.5 28:12.2 0:11.7 9:00/M
26 ARANDA ELLIANA 1613 10 193 9:46.0 28:11.5 28:13.3 0:01.8 9:04/M
27 TIARA PIMENTEL 1648 10 206 10:32.7 28:58.2 29:05.7 0:07.5 9:19/M
28 ISABELLA LASALLE 1869 12 209 10:41.7 29:07.2 29:53.0 0:45.8 9:22/M
29 LAUREN WILSEY 989 13 216 11:05.9 29:31.3 29:37.1 0:05.7 9:29/M
30 ABBIGAIL WEKLAR 964 11 231 12:11.6 30:37.1 30:42.0 0:04.9 9:51/M
31 ALLISON MITCHELL 984 12 234 12:16.5 30:42.0 31:06.3 0:24.3 9:52/M
32 LAYLA HOFFEN 923 13 239 12:47.6 31:13.0 32:49.3 1:36.2 10:02/M
33 HANNAH MURPHY 1656 11 243 13:07.3 31:32.7 31:34.9 0:02.1 10:08/M
34 ANUKA SRIVATS 2711 13 263 15:05.3 33:30.8 33:46.3 0:15.5 10:46/M
35 AVERY COOPER 1529 11 266 15:12.9 33:38.3 34:10.4 0:32.1 10:49/M
36 NICOLE RADANDT 1981 14 274 15:40.4 34:05.8 34:49.8 0:43.9 10:58/M
37 MADISON SCHOTT FLOWER MOUND TX 1998 13 282 16:01.6 34:27.0 34:34.8 0:07.7 11:05/M
38 LAURUN PENNINGTON 987 14 291 16:37.5 35:03.0 36:19.1 1:16.1 11:16/M
39 CHAELA CUNNINGHAM 965 11 296 16:46.3 35:11.7 35:14.8 0:03.0 11:19/M
40 CADENCE BABICZ 1650 11 297 16:46.8 35:12.3 35:14.7 0:02.4 11:19/M
41 SYDNEY REARDON 1635 12 304 17:07.4 35:32.9 35:53.5 0:20.5 11:26/M
42 SOFIA RODRIGUEZ 1987 12 322 18:55.4 37:20.8 37:38.6 0:17.7 12:00/M
43 JULIA WOZNIAK 2731 12 326 19:22.3 37:47.8 38:27.9 0:40.1 12:09/M
44 OLA WOZNIAK 2732 10 330 19:45.7 38:11.1 38:51.4 0:40.2 12:17/M
45 MAITHILI SHAH 905 12 331 19:45.9 38:11.4 38:19.7 0:08.3 12:17/M
46 ABIGAIL YOST 1537 12 339 20:40.9 39:06.4 40:27.8 1:21.3 12:34/M
47 CAYLI MINICK 1653 11 344 20:47.0 39:12.5 39:14.9 0:02.4 12:36/M
48 SARAH JENSEN 1561 10 346 21:11.5 39:37.0 40:01.8 0:24.7 12:44/M
49 MADISON GOODIN 1560 10 347 21:12.9 39:38.4 40:02.2 0:23.8 12:45/M
50 JOANNE LEE 1562 11 351 21:37.2 40:02.7 40:26.6 0:23.9 12:52/M
51 SIDDIE HOFFEN 922 11 352 21:37.9 40:03.3 41:40.2 1:36.9 12:53/M
52 MEGAN ZHAO 1551 11 363 25:20.2 43:45.7 43:55.1 0:09.4 14:04/M
53 ANUHYA SUNKAVALLI 2716 10 369 27:09.0 45:34.5 45:34.5 14:39/M
54 MOLLY SULLIVAN 1683 12 370 27:22.7 45:48.2 46:42.2 0:54.0 14:44/M
55 KENNEDI PETTEWAY 1657 10 410 34:33.2 52:58.7 53:19.0 0:20.2 17:02/M
56 GENEVA CLAIR 1553 13 442 40:14.0 58:39.5 59:19.5 0:39.9 18:52/M
Top

Male 10 to 14

Place Name City Bib No Age Overall Time Back Chip Time Gun Time Chip Diff Pace
1 JONATHAN CANTU DALLAS TX 969 14 2   16:40.0 16:40.8 0:00.8 5:22/M
2 ERIK HALLDORSON 1614 14 5 0:15.3 16:55.4 16:55.9 0:00.5 5:26/M
3 RILEY NEDROW 1625 11 7 0:38.6 17:18.6 17:19.4 0:00.8 5:34/M
4 JACOB RICKS FLOWER MOUND TX 1628 14 8 0:56.9 17:36.9 17:37.7 0:00.8 5:40/M
5 AIDEN LYONS 1621 13 9 1:06.0 17:46.1 17:46.6 0:00.5 5:43/M
6 NICHOLAS ANDERSON 1601 12 12 1:36.4 18:16.4 18:18.4 0:02.0 5:52/M
7 JOSHUA CLARK 1608 13 13 1:44.1 18:24.1 18:25.2 0:01.1 5:55/M
8 ASHER LESLIE 316 13 15 1:47.3 18:27.3 18:29.1 0:01.7 5:56/M
9 ASHER LESLIE 2736 13 16 1:48.0 18:28.1 18:28.8 0:00.7 5:56/M
10 COLTIN CASTANDE 1607 14 20 2:06.9 18:46.9 18:47.5 0:00.5 6:02/M
11 BLAKE BAUMANN ARLINGTON TX 301 13 21 2:10.3 18:50.3 18:51.5 0:01.1 6:03/M
12 ETHAN CONTRERAS 1610 11 23 2:10.5 18:50.5 18:51.8 0:01.2 6:03/M
13 GAVIN MCDONALD 1623 13 24 2:21.5 19:01.5 19:02.6 0:01.0 6:07/M
14 JACK CONTRERAS 1611 11 32 3:02.0 19:42.0 19:44.1 0:02.1 6:20/M
15 TREZ CONRAD 1609 12 35 3:12.8 19:52.8 19:52.8 6:23/M
16 NOAH TEPERA 2746 11 37 3:17.3 19:57.4 19:58.8 0:01.4 6:25/M
17 DASHIELL BROWNE LANTANA TX 902 10 40 3:30.5 20:10.6 20:12.5 0:01.9 6:29/M
18 BRODIE SCOTT FLOWER MOUND TX 1563 10 47 3:54.2 20:34.2 20:45.7 0:11.4 6:37/M
19 RYAN WEKLAR 963 13 48 3:58.1 20:38.1 20:39.4 0:01.2 6:38/M
20 BRODIE COLVIN 936 10 50 4:03.3 20:43.3 20:44.2 0:00.8 6:40/M
21 KENNY JENNINGS 1619 14 51 4:11.2 20:51.2 20:54.1 0:02.9 6:42/M
22 ETHAN BORGE 1678 12 59 4:45.4 21:25.5 21:27.2 0:01.7 6:53/M
23 JACKSON PENN 1892 10 60 4:45.7 21:25.7 21:26.8 0:01.0 6:53/M
24 LUKE VALDEZ 2742 10 63 4:52.7 21:32.7 21:35.2 0:02.4 6:55/M
25 JACOB SENDEN 1638 12 69 5:06.2 21:46.3 21:47.0 0:00.7 7:00/M
26 COLBY DELEEUW 1544 10 70 5:07.5 21:47.5 21:48.5 0:00.9 7:00/M
27 DEHVYN VEAZEY 1759 14 77 5:36.1 22:16.1 22:19.0 0:02.8 7:10/M
28 COLE HEILIG 973 10 89 5:59.1 22:39.1 22:49.8 0:10.7 7:17/M
29 RICARDO OLIVARES 1751 11 92 6:06.1 22:46.1 22:58.5 0:12.3 7:19/M
30 LANCE CHERRY SOUTHLAKE TX 1817 13 93 6:08.5 22:48.5 22:48.5 7:20/M
31 JACK WHITE 911 11 96 6:23.5 23:03.5 23:14.4 0:10.8 7:25/M
32 LANDON DELEEUW 1545 10 98 6:28.0 23:08.0 23:08.6 0:00.5 7:26/M
33 JOSHUA PITTNER 2743 10 107 7:12.1 23:52.1 23:57.4 0:05.2 7:40/M
34 MAURICIO CARDENAS 1606 13 109 7:17.7 23:57.7 24:00.7 0:03.0 7:42/M
35 MATHEW SAND 1992 14 110 7:18.1 23:58.2 24:04.9 0:06.7 7:42/M
36 JOHN DOWNEY 929 14 112 7:25.3 24:05.4 24:07.8 0:02.4 7:45/M
37 COLIN YOUNG 980 10 115 7:28.6 24:08.6 24:10.2 0:01.5 7:46/M
38 LANDON BAIR 916 11 116 7:31.4 24:11.4 24:19.1 0:07.6 7:47/M
39 IAN COX 907 13 123 7:55.7 24:35.8 24:38.1 0:02.3 7:54/M
40 CAMERON CROWDER 932 10 128 8:05.3 24:45.3 24:47.3 0:01.9 7:57/M
41 PATRICK SULLIVAN 1684 10 133 8:37.7 25:17.7 25:28.2 0:10.5 8:08/M
42 SAKU KERANEN 999 10 134 8:39.7 25:19.7 25:30.7 0:11.0 8:08/M
43 LOGAN WEIR 1570 10 154 9:54.5 26:34.6 26:40.3 0:05.7 8:33/M
44 JAMES VEIGEL 1567 11 158 9:58.7 26:38.7 26:39.8 0:01.0 8:34/M
45 SEAN COUSINS FLOWER MOUND TX 1556 13 161 10:07.9 26:47.9 26:57.9 0:09.9 8:37/M
46 SPENCER HENRY 1590 13 178 10:39.7 27:19.7 27:25.5 0:05.8 8:47/M
47 DYLAN FERGUSON 909 10 186 11:11.0 27:51.0 28:01.3 0:10.2 8:57/M
48 JACKSON DE LUCA 1823 10 199 11:45.7 28:25.7 28:49.8 0:24.0 9:08/M
49 ZACH SALTER 1637 13 213 12:43.9 29:23.9 29:26.8 0:02.8 9:27/M
50 JOSH RYAN STARNES 1565 10 217 12:52.8 29:32.8 29:39.2 0:06.3 9:30/M
51 G WALKER BUCHANAN 1813 11 244 15:06.8 31:46.8 32:06.5 0:19.7 10:13/M
52 SEBASTIAN BENITEZ-DIAZ 1543 11 249 15:23.2 32:03.2 32:10.1 0:06.9 10:18/M
53 GAVIN COX 1821 12 273 17:23.8 34:03.8 34:43.4 0:39.5 10:57/M
54 MATT STUBENAZY 333 10 275 17:32.3 34:12.4 35:11.6 0:59.1 11:00/M
55 LUKE RADANDT 1980 11 278 17:38.5 34:18.6 35:04.3 0:45.7 11:02/M
56 ETHAN BALL 1540 11 290 18:22.3 35:02.3 35:12.0 0:09.6 11:16/M
57 CADEN VOELZ 1568 10 327 21:22.9 38:02.9 38:14.3 0:11.3 12:14/M
58 VICTOR COUSINS 1557 10 329 21:28.9 38:08.9 38:53.6 0:44.6 12:16/M
59 ROCCO COOPER 1533 12 342 22:31.7 39:11.7 40:30.9 1:19.1 12:36/M
60 ALLISON STUBENAZY 343 14 358 25:03.7 41:43.7 42:40.2 0:56.5 13:25/M
61 AKASH KELKAR 985 10 359 25:08.8 41:48.9 42:49.6 1:00.7 13:26/M
62 TATE CLAIR 912 10 379 30:06.4 46:46.5 46:52.6 0:06.1 15:02/M
63 AADARSH SUNKAVALLI 2715 10 415 37:50.5 54:30.6 54:30.6 17:31/M
Top

Female 15 to 19

Place Name City Bib No Age Overall Time Back Chip Time Gun Time Chip Diff Pace
1 ARIEL ESPOSITO 2747 16 65   21:38.6 21:39.6 0:01.0 6:57/M
2 KRISTEN STUBENAZY 331 16 309 14:17.6 35:56.2 35:59.5 0:03.2 11:33/M
3 ALLYSON HENRY 978 19 312 14:34.8 36:13.4 36:29.6 0:16.1 11:39/M
4 KATELYNN EDWARDS CELINA TX 1828 18 372 24:15.8 45:54.4 45:54.4 14:46/M
5 WHYTNEY KIRBY 2749 19 381 25:31.8 47:10.4 48:43.7 1:33.3 15:10/M
6 EMMA CAVALERI 1501 17 383 25:47.1 47:25.7 47:44.8 0:19.1 15:15/M
7 LAURA MIKKONEN 1504 17 384 25:47.3 47:25.9 47:44.6 0:18.6 15:15/M
8 DISAYA PORNCHAIWARAKUL 1505 16 388 26:13.4 47:52.1 48:10.7 0:18.6 15:23/M
9 MEGHAN CLAIR 1554 18 441 37:00.4 58:39.1 59:19.0 0:39.9 18:52/M
Top

Male 15 to 19

Place Name City Bib No Age Overall Time Back Chip Time Gun Time Chip Diff Pace
1 JORDAN GLEDHILL 317 16 3   16:43.1 16:43.3 0:00.1 5:23/M
2 PAUL ANDERSON ARGYLE TX 329 16 4 0:08.5 16:51.6 16:52.0 0:00.4 5:25/M
3 RUGBY SCRUGGS 318 16 6 0:30.2 17:13.3 17:13.3 5:32/M
4 THOR GUSTAFSON 1587 15 19 2:00.2 18:43.4 18:49.6 0:06.2 6:01/M
5 CHRISTOPHER MEI 1546 16 33 3:00.0 19:43.1 19:47.9 0:04.7 6:20/M
6 ETHAN WATSON 1594 15 43 3:36.6 20:19.7 20:25.7 0:06.0 6:32/M
7 RAYOMAND BAM FLOWER MOUND TX 304 17 66 4:56.8 21:39.9 21:45.1 0:05.1 6:58/M
8 CARTER HENRY DALLAS TX 1588 16 72 5:13.3 21:56.4 22:02.1 0:05.7 7:03/M
9 TOMMY WARD 1592 17 73 5:14.6 21:57.7 22:03.0 0:05.3 7:03/M
10 BRIAN ZHAO 996 17 362 27:02.3 43:45.5 43:54.5 0:09.0 14:04/M
11 KEVIN CHILDRESS 1571 19 424 39:34.4 56:17.5 58:02.6 1:45.0 18:06/M
12 C SHAW BUCHANAN 1810 16 439 41:10.7 57:53.9 59:10.4 1:16.5 18:37/M
13 LOGAN SMYTH 2708 17 443 43:33.5 1:00:16.6 1:01:13.2 0:56.6 19:23/M
Top

Female 20 to 29

Place Name City Bib No Age Overall Time Back Chip Time Gun Time Chip Diff Pace
1 LEEANN WELLS 2726 21 61   21:27.2 21:27.6 0:00.4 6:54/M
2 LAUREN COSBY 926 27 99 1:41.9 23:09.1 23:31.2 0:22.1 7:27/M
3 AMY GOLDSMITH 1840 25 162 5:28.5 26:55.7 27:07.4 0:11.6 8:39/M
4 HAILEY BRODERICK 1807 24 167 5:39.4 27:06.6 27:06.6 8:43/M
5 MARISSA MILLER 982 25 177 5:51.0 27:18.2 27:52.5 0:34.3 8:47/M
6 COLBY PRUITT KATY TX 1898 29 210 7:41.9 29:09.1 30:18.3 1:09.2 9:22/M
7 SHAINA EGBERT 1829 29 220 8:21.4 29:48.6 29:58.2 0:09.5 9:35/M
8 LARISSA REDDIC 983 25 232 9:12.3 30:39.5 31:13.6 0:34.0 9:51/M
9 RACHEL ZORN 1733 28 343 17:45.2 39:12.4 39:39.9 0:27.5 12:36/M
10 STEPHANIE BALDWIN 1597 27 350 18:24.5 39:51.7 39:51.7 12:49/M
11 MACEY MCKNIGHT 977 21 389 26:49.7 48:16.9 48:31.8 0:14.9 15:31/M
12 STEPHANIE LOZA 1582 26 426 34:52.5 56:19.7 58:03.0 1:43.3 18:06/M
13 ALIX FELLEY 1579 29 434 35:17.4 56:44.6 58:12.4 1:27.8 18:15/M
14 ASHLEY WEINKEN 2725 22 438 36:25.3 57:52.5 59:09.2 1:16.6 18:36/M
15 SAMANTHA WATKINS 2721 21 440 36:27.4 57:54.6 59:10.3 1:15.7 18:37/M
Top

Male 20 to 29

Place Name City Bib No Age Overall Time Back Chip Time Gun Time Chip Diff Pace
1 MARK KWIATKOWSKI 1866 22 31   19:40.9 19:44.2 0:03.2 6:19/M
2 EDDIE MANZANARES 1672 28 76 2:32.6 22:13.6 22:58.1 0:44.5 7:09/M
3 THOMAS ROOKLIDGE 1988 26 97 3:26.0 23:07.0 23:14.8 0:07.8 7:26/M
4 BRAD CROWLEY 981 25 132 5:35.2 25:16.2 25:51.2 0:35.0 8:07/M
5 JACOB MCPHERSON 1880 26 135 5:41.0 25:22.0 25:26.5 0:04.5 8:09/M
6 LUIS ORTESA 928 26 142 6:03.3 25:44.3 26:05.9 0:21.6 8:16/M
7 ANISH GHIMIRE 1696 26 181 7:54.0 27:34.9 28:09.2 0:34.2 8:52/M
8 ABHILASH BANDA 305 28 317 16:35.1 36:16.1 36:51.6 0:35.5 11:40/M
9 PREDHIL KUMAR 1697 27 367 25:16.2 44:57.1 45:32.1 0:34.9 14:27/M
10 TROY CHILDRESS 1573 23 404 31:45.6 51:26.6 53:15.3 1:48.7 16:32/M
11 DERRICK ERB 1576 22 405 32:05.2 51:46.2 53:17.0 1:30.8 16:39/M
12 BRADEN BUCHANAN 1809 25 423 36:29.3 56:10.2 59:09.3 2:59.1 18:04/M
13 MICHAEL CHILDRESS JR 1574 28 425 36:37.3 56:18.3 58:03.3 1:45.0 18:06/M
14 BRANDON FELLEY 1580 29 433 37:02.6 56:43.6 58:12.2 1:28.5 18:14/M
15 RAHUL MANGNALE 1699 26 446 42:19.2 1:02:00.1 1:02:37.7 0:37.5 19:56/M
Top

Female 30 to 39

Place Name City Bib No Age Overall Time Back Chip Time Gun Time Chip Diff Pace
1 AMY GRAY 931 36 39   20:08.9 20:12.9 0:04.0 6:28/M
2 AMY CHILTON 1818 34 45 0:15.7 20:24.6 20:28.9 0:04.2 6:34/M
3 ALICE HILDEBRAND 1850 36 46 0:16.9 20:25.8 20:29.9 0:04.0 6:34/M
4 CARRIE FAKHRI 1833 39 53 0:54.9 21:03.9 21:07.3 0:03.4 6:46/M
5 ADRIENNE HANSELMAN 1643 32 87 2:25.4 22:34.4 22:38.2 0:03.8 7:15/M
6 LEANNE MINER 1646 31 111 3:54.2 24:03.1 24:07.5 0:04.3 7:44/M
7 BRANDON BASS 917 35 121 4:20.2 24:29.1 25:42.1 1:12.9 7:52/M
8 ASPEN CARROL 1640 36 126 4:28.9 24:37.9 24:44.7 0:06.8 7:55/M
9 LAUREN FRYE 1660 35 137 5:22.4 25:31.3 26:05.1 0:33.7 8:12/M
10 JODI LYBBERT 1644 37 139 5:29.6 25:38.6 25:44.0 0:05.4 8:15/M
11 JENNIFER CRAIN MCKINNEY TX 1668 33 153 6:22.0 26:31.0 27:23.0 0:52.0 8:32/M
12 COURTNEY COHEN 992 34 160 6:34.0 26:42.9 26:52.5 0:09.6 8:35/M
13 RYAN BIRD 924 35 165 6:54.4 27:03.4 27:08.4 0:05.0 8:42/M
14 EMILY TEUSCHER FLOWER MOUND TX 1649 33 166 6:54.6 27:03.6 27:12.2 0:08.6 8:42/M
15 REBECCA MAXWELL 1876 35 168 6:58.4 27:07.3 27:13.8 0:06.5 8:43/M
16 REBECCA BRUTON 975 34 171 7:03.6 27:12.5 27:25.8 0:13.2 8:45/M
17 AMY SMITH 1663 39 172 7:04.0 27:12.9 27:43.2 0:30.2 8:45/M
18 HEATHER GIMENEZ 1559 36 179 7:24.2 27:33.1 27:55.1 0:22.0 8:52/M
19 VALERIE SMYTH 2710 39 182 7:32.5 27:41.4 27:47.4 0:06.0 8:54/M
20 JILL SCOTT 1564 39 194 8:07.0 28:15.9 28:45.1 0:29.2 9:05/M
21 LACEY BRYANT DENTON TX 988 31 215 9:17.5 29:26.5 29:37.4 0:10.8 9:28/M
22 SARAH CAUDLE 1598 30 236 10:36.7 30:45.6 31:44.3 0:58.6 9:53/M
23 ERIN ROBERTS 1755 36 237 10:41.0 30:50.0 32:00.9 1:10.9 9:55/M
24 JENNIFER LAIRD 970 33 256 12:34.8 32:43.7 32:53.4 0:09.6 10:31/M
25 PRIYA MADHI 954 35 259 12:48.8 32:57.8 32:57.8 10:36/M
26 STACEE DE LA BASTIDE 1739 35 269 13:38.7 33:47.6 34:35.4 0:47.7 10:52/M
27 MONICA MANZANARES 1673 31 287 14:33.9 34:42.9 35:45.4 1:02.4 11:09/M
28 SAHAR KHOSHKAR 1861 33 295 14:59.3 35:08.3 35:56.3 0:47.9 11:18/M
29 CLAIRISSA COOPER 1530 37 298 15:05.3 35:14.2 35:46.0 0:31.8 11:20/M
30 RIBEKA PIMENTEL 1647 32 303 15:17.1 35:26.0 35:37.1 0:11.0 11:24/M
31 STEPHANIE DODSON FLOWER MOUND TX 1826 39 311 16:00.4 36:09.3 37:05.7 0:56.3 11:37/M
32 NISHEETA NAIDU 1701 34 316 16:06.6 36:15.5 36:50.3 0:34.8 11:39/M
33 HEIDI WEBER 2722 36 318 16:25.5 36:34.5 37:37.8 1:03.3 11:45/M
34 SARA LEYSTER 1662 37 324 17:21.0 37:29.9 38:51.8 1:21.8 12:03/M
35 ASHLEY WESTGATE 1665 36 325 17:31.7 37:40.6 38:59.7 1:19.0 12:07/M
36 BECKY CROSS 1715 37 348 19:31.7 39:40.6 40:08.2 0:27.6 12:45/M
37 KATHY NIK 1885 37 364 24:18.1 44:27.0 45:15.0 0:47.9 14:18/M
38 MOSHGHAN MANSOORI 1874 34 365 24:19.0 44:28.0 45:15.4 0:47.4 14:18/M
39 APRIL BORGE 1801 39 377 26:35.5 46:44.5 47:05.3 0:20.8 15:02/M
40 JENNIFER KIRBY Fort Worth TX 1862 37 382 27:02.6 47:11.6 48:44.3 1:32.6 15:10/M
41 JULIE VANDERGRIFF 2719 33 392 28:24.2 48:33.1 49:41.0 1:07.8 15:37/M
42 DIANE RANKIN 1982 38 393 28:24.3 48:33.3 49:40.4 1:07.0 15:37/M
43 DOMINIQUE ZHAO 914 39 394 28:30.0 48:38.9 49:03.2 0:24.2 15:38/M
44 HELISHA KLIPP 1863 38 420 35:49.6 55:58.6 56:15.5 0:16.9 18:00/M
45 RACHEL LARKINS 1521 35 435 37:13.8 57:22.8 58:24.2 1:01.4 18:27/M
46 MAMATHA KAPARTHY 1503 34 437 37:30.2 57:39.2 58:01.8 0:22.6 18:32/M
47 AUDREY LARKINS 1520 38 445 41:37.2 1:01:46.2 1:02:47.5 1:01.3 19:52/M
Top

Male 30 to 39

Place Name City Bib No Age Overall Time Back Chip Time Gun Time Chip Diff Pace
1 MARK MILLER CARROLLTON TX 313 38 28   19:23.4 19:25.9 0:02.5 6:14/M
2 SCOTT NEDROW 1626 35 30 0:17.4 19:40.8 19:43.8 0:02.9 6:19/M
3 DAMIAN BLACK 1785 30 42 0:55.6 20:19.0 20:23.3 0:04.2 6:32/M
4 JOHN HILDEBRAND 1851 35 55 1:50.0 21:13.4 21:17.8 0:04.4 6:49/M
5 CHRIS CRAIN 1667 31 62 2:06.7 21:30.1 21:54.3 0:24.1 6:55/M
6 MICHAEL SANTILLI 1994 31 75 2:42.5 22:05.9 22:13.8 0:07.8 7:06/M
7 DAVID POWELL 1690 37 108 4:31.4 23:54.8 24:38.4 0:43.6 7:41/M
8 ANDREW MAXWELL 1875 35 117 4:55.1 24:18.5 24:25.0 0:06.5 7:49/M
9 RUSSELL BAIR 915 39 192 8:45.0 28:08.4 28:37.3 0:28.9 9:03/M
10 MATT WILLIAMS 2728 32 224 10:30.0 29:53.4 30:34.1 0:40.7 9:37/M
11 RICKEY LUSTER 1871 33 229 10:51.5 30:14.9 30:58.3 0:43.4 9:43/M
12 SRINIVAS MOTHUKURI 1700 37 242 12:07.4 31:30.8 32:03.8 0:32.9 10:08/M
13 SEAN MCAFEE 1878 33 252 13:02.9 32:26.3 33:29.4 1:03.0 10:26/M
14 MICHAEL DRAKE ARLINGTON TX 323 34 277 14:52.9 34:16.3 34:32.1 0:15.8 11:01/M
15 JUSTIN COOPER 1531 38 300 15:57.3 35:20.8 35:51.9 0:31.1 11:22/M
16 BRYAN LEYSTER 1661 38 323 18:06.5 37:29.9 38:52.5 1:22.6 12:03/M
17 JAY VOELZ 1569 39 328 18:43.0 38:06.4 38:15.1 0:08.6 12:15/M
18 JOSHUA BORGE 1802 38 378 27:21.5 46:44.9 47:05.6 0:20.6 15:02/M
19 KENNETH POWELL 1895 38 391 29:01.7 48:25.1 49:11.6 0:46.4 15:34/M
Top

Female 40 to 49

Place Name City Bib No Age Overall Time Back Chip Time Gun Time Chip Diff Pace
1 MELISSA SULLIVAN 1524 42 74   22:00.3 22:05.8 0:05.4 7:04/M
2 CAROL BEADLES FLOWER MOUND TX 1780 46 88 0:38.2 22:38.6 22:42.9 0:04.3 7:17/M
3 CHERYL CANADY LEWISVILLE TX 1816 42 100 1:10.4 23:10.7 23:18.4 0:07.6 7:27/M
4 AMBER SCHNAPP 930 40 103 1:25.8 23:26.2 23:31.0 0:04.7 7:32/M
5 SHELLY GEX - KOCH 1502 46 122 2:31.7 24:32.1 25:17.1 0:45.0 7:53/M
6 KATARIINA KERANEN 1681 46 143 3:44.8 25:45.1 26:10.1 0:25.0 8:17/M
7 RAENA WILLIAMS BEDFORD TX 2729 40 144 3:51.5 25:51.9 26:12.3 0:20.4 8:19/M
8 RONDA CLUFF 927 46 146 4:02.9 26:03.3 26:12.4 0:09.1 8:23/M
9 DAILYN VALDEZ 995 41 149 4:10.1 26:10.5 26:10.5 8:25/M
10 LARRIE TARVER 1550 41 157 4:37.7 26:38.0 26:43.1 0:05.0 8:34/M
11 SUNDRA CAZARES FLOWER MOUND TX 1528 46 164 5:02.7 27:03.1 27:11.6 0:08.5 8:42/M
12 LINDA BOOMER 1510 44 173 5:12.6 27:13.0 27:27.1 0:14.1 8:45/M
13 GAYLA WARD 904 47 174 5:12.8 27:13.2 27:21.6 0:08.4 8:45/M
14 VICTORIA COUSINS FLOWER MOUND TX 1558 41 183 5:45.1 27:45.4 28:29.9 0:44.4 8:55/M
15 LISA VINEYARD 986 49 188 5:53.2 27:53.6 28:16.0 0:22.3 8:58/M
16 RAYANNA VLOITOS 939 45 195 6:17.6 28:18.0 28:29.0 0:11.0 9:06/M
17 VALARRIE ROBINSON 1985 41 198 6:25.3 28:25.7 29:18.0 0:52.2 9:08/M
18 LORI CONRAD 336 46 205 6:55.1 28:55.5 29:41.4 0:45.9 9:18/M
19 JANO PITTNER 2741 46 212 7:18.4 29:18.8 29:24.1 0:05.3 9:25/M
20 SARAH HARMON 993 40 214 7:25.4 29:25.7 29:36.9 0:11.1 9:28/M
21 MELISSIA BARRON 1639 41 219 7:46.1 29:46.4 29:50.2 0:03.7 9:34/M
22 ERIN RIGGALL 994 43 221 7:50.1 29:50.5 30:04.0 0:13.5 9:36/M
23 CAROLYN TAYLOR 1566 44 222 7:51.5 29:51.9 30:14.4 0:22.4 9:36/M
24 CHERIE PEMBERTON 971 43 230 8:21.9 30:22.3 30:41.8 0:19.5 9:46/M
25 SHANNON DONAGHEY FLOWER MOUND TX 1507 46 233 8:40.3 30:40.6 31:31.4 0:50.7 9:52/M
26 JILL RUEDA 1989 46 240 9:23.5 31:23.9 32:15.7 0:51.7 10:05/M
27 SHERYL SASI 1995 41 257 10:48.8 32:49.2 33:12.0 0:22.8 10:33/M
28 GLENDA TALLEY 952 46 258 10:55.2 32:55.6 33:39.9 0:44.3 10:35/M
29 KRIS BUCHANAN 1814 47 262 11:29.7 33:30.1 34:29.8 0:59.7 10:46/M
30 URSULA FINN 1835 42 268 11:43.2 33:43.5 34:26.2 0:42.6 10:50/M
31 KRISTA RADANDT 1979 44 272 12:00.7 34:01.1 34:45.9 0:44.8 10:56/M
32 IVONNE RODRIGUEZ 1986 41 281 12:21.4 34:21.8 34:40.5 0:18.6 11:03/M
33 JENNY TRACEWELL 997 45 283 12:31.2 34:31.6 34:43.1 0:11.5 11:06/M
34 JULIET URUSHIMA 920 46 285 12:35.8 34:36.2 35:18.0 0:41.8 11:08/M
35 LORI WADDING 2720 48 288 12:50.6 34:51.0 35:35.0 0:43.9 11:12/M
36 BRENDA BARTH 918 49 289 12:59.0 34:59.3 35:37.3 0:38.0 11:15/M
37 TRACY MADSEN 1873 44 307 13:49.6 35:50.0 36:25.8 0:35.8 11:31/M
38 TRISH ROBINSON 1513 47 315 14:13.8 36:14.2 36:30.2 0:16.0 11:39/M
39 BRITNEY COX 1820 41 319 14:48.3 36:48.6 37:27.6 0:39.0 11:50/M
40 SUSAN PAINTER 1891 49 320 14:51.5 36:51.9 37:01.5 0:09.6 11:51/M
41 STEFANI INSKEEP 1858 48 334 16:13.7 38:14.1 39:07.4 0:53.2 12:18/M
42 LILI ARROYAVE 1734 47 335 16:14.0 38:14.4 39:07.6 0:53.2 12:18/M
43 SHELLY KOONCE 310 46 340 17:08.7 39:09.1 39:49.1 0:39.9 12:35/M
44 STEPHANIE YOST FLOWER MOUND TX 1538 40 341 17:10.8 39:11.2 40:31.2 1:19.9 12:36/M
45 GAIL MURPHY FLOWER MOUND TX 1655 43 353 18:33.2 40:33.6 40:50.2 0:16.6 13:02/M
46 MARY GIGLIO 1839 48 368 22:57.7 44:58.1 45:34.7 0:36.5 14:28/M
47 ELIZABETH VEAZEY 1760 45 374 24:08.5 46:08.9 46:18.1 0:09.2 14:50/M
48 TRACY DUNCAN 311 45 385 25:35.4 47:35.8 47:41.5 0:05.6 15:18/M
49 SMITHA MAKAM 1509 40 386 25:48.1 47:48.4 48:17.0 0:28.6 15:22/M
50 JACKIE GUSTAFSON 1585 48 387 25:50.8 47:51.2 48:13.9 0:22.6 15:23/M
51 TERESA MINICK 1654 47 402 28:19.9 50:20.3 50:42.7 0:22.4 16:11/M
52 KC HORNUNG 1652 44 406 30:11.5 52:11.9 52:33.1 0:21.2 16:47/M
53 TRACI PETTEWAY 1658 44 411 31:07.9 53:08.2 53:28.7 0:20.4 17:05/M
54 RETA CLAIR 1555 46 413 31:25.8 53:26.2 54:04.9 0:38.6 17:11/M
55 COLETTE MCCARTY LEWISVILLE TX 1879 46 419 33:30.5 55:30.9 55:58.6 0:27.7 17:51/M
56 MICHELLE TAYLOR 1525 48 421 34:03.5 56:03.9 56:38.3 0:34.3 18:01/M
57 MELISSA DIXON 1747 40 447 40:24.6 1:02:25.0 1:03:11.2 0:46.1 20:04/M
58 CHRISTINE TAYLOR 1756 46 449 40:37.7 1:02:38.0 1:02:38.0 20:08/M
Top

Male 40 to 49

Place Name City Bib No Age Overall Time Back Chip Time Gun Time Chip Diff Pace
1 MATT CELONE 947 41 10   18:08.8 18:10.4 0:01.6 5:50/M
2 TODD BURNS 1815 45 25 0:58.3 19:07.1 19:11.9 0:04.7 6:09/M
3 KEVIN LYONS 1622 49 29 1:31.7 19:40.5 19:45.8 0:05.2 6:19/M
4 ANDREW DODD 953 43 49 2:30.9 20:39.7 20:39.7 6:38/M
5 RICK OLIVARES 1889 44 52 2:51.3 21:00.1 21:11.8 0:11.6 6:45/M
6 CHRIS SMITH 968 40 67 3:34.9 21:43.7 21:47.6 0:03.9 6:59/M
7 RANDY POSEY 1894 46 68 3:37.1 21:45.9 21:49.0 0:03.0 7:00/M
8 BRENT GOUDEAU 328 49 80 4:13.7 22:22.5 22:25.3 0:02.8 7:12/M
9 AARON SUTBENAZY 334 46 81 4:14.4 22:23.2 23:21.6 0:58.3 7:12/M
10 CHRIS HOFFEN 921 45 86 4:24.6 22:33.4 23:40.7 1:07.2 7:15/M
11 CHRIS HEILIG 972 42 90 4:31.2 22:40.0 22:50.1 0:10.1 7:17/M
12 RANDY SMILEY 2706 47 94 4:51.6 23:00.4 23:07.6 0:07.2 7:24/M
13 STEVEN BROWNE Argyle TX 901 49 125 6:27.4 24:36.2 24:40.7 0:04.4 7:55/M
14 JANI LEHTI 1682 42 127 6:31.0 24:39.8 25:05.3 0:25.4 7:56/M
15 ANDY WATSON 1593 47 129 6:41.7 24:50.6 25:20.2 0:29.6 7:59/M
16 LEIF ANDERSON FLOWER MOUND TX 302 46 131 6:57.1 25:05.9 25:33.5 0:27.5 8:04/M
17 CLINT LASS 1698 46 148 7:58.6 26:07.4 26:33.3 0:25.9 8:24/M
18 ED HAYNES FLOWER MOUND TX 1847 44 151 8:14.7 26:23.5 26:30.6 0:07.1 8:29/M
19 CHRISTOPHER BINOVI FLOWER MOUND TX 1781 41 163 8:48.9 26:57.8 27:31.8 0:34.0 8:40/M
20 BOYD BEADLES FLOWER MOUND TX 1779 47 175 9:05.1 27:13.9 27:41.2 0:27.3 8:45/M
21 DWAYNE SMITH 1664 44 176 9:08.1 27:16.9 27:45.1 0:28.2 8:46/M
22 DAVID MAYOR 320 40 184 9:38.5 27:47.3 28:00.0 0:12.7 8:56/M
23 DAVID HEXTER 1849 45 197 10:16.4 28:25.2 28:49.4 0:24.2 9:08/M
24 JOHN DONAGHEY 1506 45 201 10:23.3 28:32.1 29:23.2 0:51.0 9:10/M
25 RON HENRY 1589 47 203 10:35.4 28:44.2 29:11.9 0:27.6 9:14/M
26 JIM KOONCE 308 47 204 10:45.0 28:53.9 29:33.2 0:39.3 9:17/M
27 ERIK LASALLE 1868 46 208 10:57.6 29:06.4 29:52.2 0:45.7 9:21/M
28 SAJIT SASI 335 43 218 11:34.8 29:43.6 30:06.5 0:22.9 9:33/M
29 ANDREW DOLL IOWA CITY IA 1748 48 226 11:52.7 30:01.5 30:55.4 0:53.8 9:39/M
30 GUSTAVO BENITEZ 1542 41 248 13:53.0 32:01.8 32:09.9 0:08.1 10:18/M
31 CRAIG WILSEY 990 45 267 15:32.3 33:41.1 33:48.2 0:07.1 10:50/M
32 JOHNIE NGUYEN 1884 41 276 16:05.9 34:14.7 34:16.6 0:01.8 11:00/M
33 JEREMIAH RADANDT 2735 41 280 16:11.7 34:20.5 35:03.9 0:43.3 11:02/M
34 JIMMY BALL 1541 48 293 16:54.9 35:03.7 35:13.2 0:09.4 11:16/M
35 JIM DONEGAN 1827 49 305 17:24.9 35:33.7 36:19.4 0:45.6 11:26/M
36 MANISH SHAH 906 46 333 20:04.9 38:13.7 38:22.2 0:08.4 12:17/M
37 ERIC GUSTAFSON 1584 45 345 21:27.2 39:36.0 40:05.8 0:29.7 12:44/M
38 RAVI MAKAM 1508 47 354 23:01.1 41:09.9 41:38.7 0:28.7 13:14/M
39 ROB CLAIR 913 47 357 23:30.5 41:39.3 42:16.4 0:37.0 13:24/M
40 PAUL WESTGATE 1666 42 366 26:44.7 44:53.5 46:12.7 1:19.1 14:26/M
41 DARREN BURTON 306 47 373 27:57.3 46:06.1 48:36.5 2:30.3 14:49/M
42 KASEY CHRISTIE 1680 49 409 34:41.9 52:50.7 53:06.4 0:15.7 16:59/M
43 TODD YOST 1539 41 412 35:01.3 53:10.1 54:30.6 1:20.4 17:06/M
Top

Female 50 to 59

Place Name City Bib No Age Overall Time Back Chip Time Gun Time Chip Diff Pace
1 SANDY PENNEY 925 53 106   23:50.8 23:54.9 0:04.1 7:40/M
2 STEPHANIE ELMER FLOWER MOUND TX 1534 54 136 1:40.1 25:30.9 25:41.1 0:10.2 8:12/M
3 ANN HANDREN 1844 57 152 2:37.5 26:28.3 26:53.1 0:24.7 8:31/M
4 SUSAN BADARACCO 1596 53 156 2:45.9 26:36.7 27:24.0 0:47.3 8:33/M
5 MICHELLE ADAMS 330 54 200 4:36.8 28:27.6 28:49.4 0:21.7 9:09/M
6 LISA MEEGAN 1881 52 223 6:01.9 29:52.7 30:01.6 0:08.8 9:36/M
7 LEIGH GISTINGER 1599 52 235 6:53.3 30:44.1 31:41.6 0:57.5 9:53/M
8 LAURAL LIPARI 1870 51 253 8:39.8 32:30.6 32:51.4 0:20.7 10:27/M
9 DONNA JUETT 1859 56 254 8:42.6 32:33.4 35:08.0 2:34.5 10:28/M
10 DIANNE BELL 1527 55 264 9:47.4 33:38.2 34:19.5 0:41.3 10:49/M
11 SANDRA LANCASTER 1867 55 270 10:09.5 34:00.3 34:22.3 0:22.0 10:56/M
12 MELISSA SPRACER 342 50 306 11:52.9 35:43.7 36:04.1 0:20.3 11:29/M
13 PATRICA FRIEDMAN 1838 57 355 17:28.9 41:19.7 41:59.3 0:39.6 13:17/M
14 DAWN CAULEY 1687 56 376 22:47.6 46:38.4 47:58.3 1:19.8 15:00/M
15 SHELIA OHALLORAN 1888 53 395 24:52.9 48:43.7 49:25.8 0:42.0 15:40/M
16 LORI BORREGO 1804 56 397 25:41.5 49:32.3 50:08.0 0:35.6 15:56/M
17 NANCY KROHN 1519 56 398 26:16.1 50:06.9 50:34.3 0:27.3 16:07/M
18 JACKIE BARCELLONA 1515 56 401 26:17.9 50:08.7 50:33.9 0:25.2 16:07/M
19 LYNETTE WEEL 2724 55 407 28:50.6 52:41.4 53:19.4 0:37.9 16:56/M
20 CARLA HORTON 1852 54 416 31:27.1 55:17.9 55:39.8 0:21.9 17:47/M
21 LOUANN MIX LEWISVILLE TX 1882 55 418 31:37.2 55:28.0 55:55.8 0:27.7 17:50/M
22 CHERYL LOHBUER 1523 50 422 32:13.9 56:04.7 56:38.4 0:33.7 18:02/M
23 MARGARET MULCAHY 1689 56 428 32:33.9 56:24.7 57:18.2 0:53.4 18:08/M
24 TONIA GASPER 1581 51 430 32:44.3 56:35.1 58:17.1 1:42.0 18:12/M
25 TRACI ERB DOUBLE OAK TX 1578 50 431 32:44.3 56:35.1 58:15.0 1:39.9 18:12/M
26 TORI CHILDRESS 1572 54 432 32:47.8 56:38.6 58:16.5 1:37.8 18:13/M
Top

Male 50 to 59

Place Name City Bib No Age Overall Time Back Chip Time Gun Time Chip Diff Pace
1 GREG ERB DOUBLE OAK TX 1577 52 82   22:28.4 22:38.3 0:09.8 7:13/M
2 RICHARD WYGLE 2734 52 85 0:03.9 22:32.4 22:40.3 0:07.9 7:15/M
3 JEFFREY WAGNER 1771 56 105 1:14.2 23:42.7 24:38.3 0:55.6 7:37/M
4 MICHAEL SAND 1993 54 114 1:39.1 24:07.6 24:14.2 0:06.5 7:45/M
5 FRIKKIE SWARDT HASLET TX 1705 52 118 1:53.1 24:21.6 24:53.6 0:32.0 7:50/M
6 ALEJANDRO MORALES 951 55 147 3:36.2 26:04.7 26:13.5 0:08.7 8:23/M
7 SHANNON HAWK FLOWER MOUND TX 1846 54 150 3:47.0 26:15.4 26:23.8 0:08.3 8:26/M
8 PATRICK KELVIN 998 54 180 5:05.6 27:34.0 28:04.2 0:30.1 8:52/M
9 DAVID FERGUSON 908 51 185 5:22.1 27:50.6 28:00.8 0:10.2 8:57/M
10 LANIS BRODERICK 1808 53 211 6:46.4 29:14.9 29:35.9 0:21.0 9:24/M
11 DAMON SIMMONS 2704 59 227 7:34.7 30:03.1 30:29.8 0:26.6 9:40/M
12 BRUCE INSKEEP 1857 50 228 7:41.6 30:10.1 30:37.9 0:27.8 9:42/M
13 RAMAN SRIVATS 2712 52 245 9:20.0 31:48.5 32:08.3 0:19.8 10:14/M
14 JERRY LOHBAUER 1522 52 246 9:26.9 31:55.4 32:49.7 0:54.3 10:16/M
15 KEVIN MARSHALL 1535 51 251 9:42.6 32:11.1 32:37.8 0:26.7 10:21/M
16 JEFF KNAPP CORINTH TX 1864 53 279 11:50.1 34:18.6 34:48.4 0:29.8 11:02/M
17 PATRICK HANDREN 1845 57 284 12:07.1 34:35.5 35:39.1 1:03.5 11:07/M
18 D BUCHANAN 1811 57 292 12:35.0 35:03.5 35:37.2 0:33.7 11:16/M
19 CHARLIE OHALLORAN 1887 57 308 13:23.5 35:52.0 36:28.0 0:35.9 11:32/M
20 RICK ARROYAVE 1737 54 371 23:22.2 45:50.7 46:43.4 0:52.7 14:44/M
21 BRIAN BARTH 919 50 380 24:28.4 46:56.9 47:35.5 0:38.6 15:05/M
22 DAVID KROHN 1518 54 399 27:38.8 50:07.3 50:34.5 0:27.2 16:07/M
23 JON BARCELLONA 1516 56 400 27:40.0 50:08.5 50:34.6 0:26.0 16:07/M
24 JIM WEEL 2723 55 408 30:13.0 52:41.5 53:19.6 0:38.1 16:56/M
25 MICHAEL CHILDRESS SR 1575 56 429 34:05.2 56:33.6 58:13.2 1:39.5 18:11/M
Top

Female 60 to 69

Place Name City Bib No Age Overall Time Back Chip Time Gun Time Chip Diff Pace
1 TRUDY CLELAND 935 66 196   28:23.2 29:06.7 0:43.4 9:08/M
2 BARBARA STARKEY 2713 60 247 3:35.9 31:59.2 32:39.0 0:39.8 10:17/M
3 JANE PRAUGHT FLOWER MOUND TX 1897 60 265 5:15.1 33:38.3 33:58.4 0:20.1 10:49/M
4 WENDY KNAPP CORINTH TX 1865 60 302 7:01.4 35:24.7 35:53.3 0:28.6 11:23/M
5 NANNETTE SIMMONS 2705 60 321 8:52.0 37:15.3 38:09.3 0:54.0 11:59/M
6 PREETA WEED 1691 63 337 10:07.6 38:30.9 39:51.2 1:20.2 12:23/M
7 DONNA SCHNELL 1997 61 349 11:21.0 39:44.2 40:03.2 0:19.0 12:47/M
8 VIVIAN ASHFORD 1776 60 375 18:12.4 46:35.7 46:43.5 0:07.8 14:59/M
9 DEBBIE FABER 1832 61 396 21:09.0 49:32.3 50:07.6 0:35.3 15:56/M
10 AMY CHERRNAY 1517 62 427 28:00.9 56:24.2 56:57.8 0:33.5 18:08/M
11 KAY WATSON 1526 61 436 29:00.1 57:23.4 58:24.5 1:01.1 18:27/M
12 EILEEN SMYTH 2707 63 444 31:54.4 1:00:17.7 1:01:13.1 0:55.4 19:23/M
13 MARY ROMASZOWSKI 2748 65 451 42:39.3 1:11:02.5 1:12:04.0 1:01.4 22:50/M
Top

Male 60 to 69

Place Name City Bib No Age Overall Time Back Chip Time Gun Time Chip Diff Pace
1 TOM ALVEY FLOWER MOUND TX 1679 62 64   21:35.7 21:39.5 0:03.8 6:56/M
2 TIMOTHY MACHELSKI 1872 60 79 0:44.7 22:20.4 22:27.1 0:06.7 7:11/M
3 TERRY NORTH FLOWER MOUND TX 1886 67 202 6:58.2 28:33.9 28:51.9 0:17.9 9:11/M
4 JOHN FITCH FLOWER MOUND TX 1836 66 260 11:32.2 33:07.9 34:14.8 1:06.9 10:39/M
Top

Female 70 & Over

Place Name City Bib No Age Overall Time Back Chip Time Gun Time Chip Diff Pace
1 KARLEE DIAL 1824 99 255   32:33.5 35:08.3 2:34.8 10:28/M
2 MARGARET LEE 934 74 313 3:40.6 36:14.1 37:11.3 0:57.2 11:39/M
3 FADRA MCAFEE 1877 99 356 8:54.3 41:27.8 42:32.2 1:04.3 13:20/M
4 NOLENE BORGE 1803 70 360 10:04.2 42:37.7 42:58.9 0:21.2 13:42/M
5 PETRA CRUZ 1822 71 414 21:08.7 53:42.2 54:17.9 0:35.6 17:16/M
6 KATHLEEN GREENER 1843 70 417 22:45.4 55:18.9 55:40.3 0:21.4 17:47/M
Top

Male 70 & Over

Place Name City Bib No Age Overall Time Back Chip Time Gun Time Chip Diff Pace
1 WILL FERSON FLOWER MOUND TX 1834 76 225   29:54.4 29:57.7 0:03.3 9:37/M
2 CARL HEATH 1848 71 338 8:36.6 38:31.0 38:39.1 0:08.0 12:23/M
3 PAUL PETERS 1893 74 403 21:30.9 51:25.3 51:42.0 0:16.6 16:32/M